Weather at Clear Creek Ranch Airport [CLOSED]

Public forecast

Using degrees Fahrenheit for public forecast. Weather courtesy of forecast.io.

Closest aviation weather report (METAR) to Clear Creek Ranch Airport

Closest report is Colorado City Municipal Airport, 19.6 nm (36.3 km) SSW. Retrieved 2020/09/22 20:35 UTC (0 seconds ago):

KAZC 222035Z AUTO 20008KT 130V230 10SM CLR 33/08 A3019 RMK AO2

Closest aviation forecast (TAF) to Clear Creek Ranch Airport

Closest forecast is Cedar City Regional Airport, 30.2 nm (56.0 km) NNW. Retrieved 2020/09/22 18:33 UTC (2 hours ago):

TAF KCDC 221730Z 2218/2318 22010KT P6SM SCT120 FM221900 21012G22KT P6SM VCSH FEW090 SCT120 FM230100 18007KT P6SM SCT120